Time;durP1;ratioP1;P1;durP2;ratioP2;P2;SDS_P1;SDS_P2;PMS_P1;PMS_P2;Temp;Humidity;BMP_temperature;BMP_pressure;BME280_temperature;BME280_humidity;BME280_pressure;Samples;Min_cycle;Max_cycle;Signal;HPM_P1;HPM_P2
2022/08/19 00:01:22;;;;;;;23.05;15.55;;;;;;;23.62;79.19;100549.50;5077670;27;20570;-65
2022/08/19 00:03:49;;;;;;;22.75;15.55;;;;;;;23.54;79.96;100544.97;5085216;28;20040;-65
2022/08/19 00:06:15;;;;;;;22.55;16.58;;;;;;;23.63;79.77;100549.34;5087090;28;20052;-65
2022/08/19 00:08:44;;;;;;;25.08;17.00;;;;;;;23.75;79.59;100539.13;5085322;28;20068;-66
2022/08/19 00:11:12;;;;;;;21.80;16.58;;;;;;;23.42;81.66;100537.47;5085545;27;20056;-66
2022/08/19 00:13:38;;;;;;;25.95;16.95;;;;;;;23.26;83.08;100540.91;5088191;27;20048;-66
2022/08/19 00:16:06;;;;;;;25.63;17.38;;;;;;;23.31;82.83;100546.63;5086119;28;20121;-66
2022/08/19 00:18:33;;;;;;;28.85;17.17;;;;;;;23.45;82.31;100537.13;5084709;27;20044;-65
2022/08/19 00:21:00;;;;;;;25.27;17.52;;;;;;;23.47;81.99;100543.97;5086329;27;20048;-66
2022/08/19 00:23:27;;;;;;;26.58;17.65;;;;;;;23.44;82.61;100541.63;5107001;27;20051;-66
2022/08/19 00:25:54;;;;;;;27.15;18.38;;;;;;;23.31;82.81;100538.59;5105318;27;20484;-66
2022/08/19 00:28:21;;;;;;;27.77;18.08;;;;;;;23.48;82.18;100534.94;5107055;27;20388;-66
2022/08/19 00:30:47;;;;;;;24.77;18.10;;;;;;;23.53;81.83;100534.44;5105941;27;20694;-66
2022/08/19 00:33:16;;;;;;;25.88;17.85;;;;;;;23.46;81.52;100528.94;5085469;27;20097;-66
2022/08/19 00:35:42;;;;;;;27.92;19.08;;;;;;;23.55;81.73;100529.75;5085809;27;20131;-66
2022/08/19 00:38:09;;;;;;;26.80;19.10;;;;;;;23.38;83.09;100522.72;5084980;27;20039;-66
2022/08/19 00:40:35;;;;;;;28.80;19.92;;;;;;;23.31;83.40;100527.06;5064823;28;20041;-66
2022/08/19 00:43:08;;;;;;;31.65;18.75;;;;;;;23.20;83.61;100518.34;5066150;28;20048;-66
2022/08/19 00:45:35;;;;;;;27.30;19.20;;;;;;;23.07;85.18;100523.34;5085195;27;20101;-66
2022/08/19 00:48:04;;;;;;;28.02;18.90;;;;;;;22.89;85.54;100519.97;5083901;28;20048;-66
2022/08/19 00:50:32;;;;;;;27.05;18.10;;;;;;;22.61;86.81;100507.84;5088747;27;20050;-66
2022/08/19 00:52:59;;;;;;;25.33;19.25;;;;;;;22.73;86.83;100509.22;5086700;27;20102;-66
2022/08/19 00:55:28;;;;;;;28.63;19.30;;;;;;;22.35;88.98;100512.41;5084555;27;20040;-66
2022/08/19 00:57:58;;;;;;;28.02;19.65;;;;;;;22.42;88.78;100502.75;5083131;27;20652;-66
2022/08/19 01:00:28;;;;;;;30.52;20.25;;;;;;;22.51;88.53;100502.59;5083975;27;20048;-66
2022/08/19 01:02:54;;;;;;;29.73;19.95;;;;;;;22.46;89.05;100509.44;5086310;28;20116;-66
2022/08/19 01:05:27;;;;;;;32.80;20.58;;;;;;;22.43;89.22;100521.25;5084605;28;20048;-69
2022/08/19 01:07:53;;;;;;;;;;;;;;;22.49;88.80;100514.47;5085254;28;20543;-69
2022/08/19 01:10:24;;;;;;;30.75;21.55;;;;;;;22.60;88.07;100516.84;5104036;27;19968;-68
2022/08/19 01:12:53;;;;;;;29.00;20.45;;;;;;;22.53;89.08;100521.16;5100655;27;20050;-69
2022/08/19 01:15:24;;;;;;;28.08;20.05;;;;;;;22.59;88.23;100520.50;5086605;27;20066;-69
2022/08/19 01:17:54;;;;;;;29.25;20.67;;;;;;;22.69;87.99;100516.72;5091160;27;20569;-69
2022/08/19 01:20:23;;;;;;;30.33;20.45;;;;;;;22.64;87.82;100520.88;5104549;27;20104;-68
2022/08/19 01:22:53;;;;;;;28.13;20.55;;;;;;;22.56;88.16;100520.84;5105114;27;20039;-68
2022/08/19 01:25:22;;;;;;;28.30;20.77;;;;;;;22.60;87.44;100514.16;5105672;27;20094;-68
2022/08/19 01:27:50;;;;;;;31.75;20.92;;;;;;;22.59;88.48;100520.50;5105053;27;20411;-68
2022/08/19 01:30:22;;;;;;;26.52;19.75;;;;;;;22.40;89.30;100518.09;5090551;27;20048;-68
2022/08/19 01:32:48;;;;;;;28.00;21.23;;;;;;;22.48;89.32;100512.78;5085998;27;20502;-68
2022/08/19 01:35:17;;;;;;;28.63;19.67;;;;;;;22.40;89.56;100516.25;5084352;27;20074;-69
2022/08/19 01:37:51;;;;;;;29.60;20.70;;;;;;;22.39;89.65;100508.41;5072479;27;20047;-70
2022/08/19 01:40:21;;;;;;;27.25;21.27;;;;;;;22.63;88.56;100513.84;5104851;27;20047;-69
2022/08/19 01:42:48;;;;;;;31.75;21.85;;;;;;;22.64;88.21;100515.53;5085997;27;20043;-69
2022/08/19 01:45:15;;;;;;;33.40;22.73;;;;;;;22.88;86.63;100510.25;5085048;27;20051;-69
2022/08/19 01:47:42;;;;;;;31.20;22.35;;;;;;;22.72;87.50;100520.94;5084384;28;20073;-69
2022/08/19 01:50:10;;;;;;;28.50;21.30;;;;;;;22.69;87.40;100521.22;5086145;28;20048;-68
2022/08/19 01:52:36;;;;;;;31.25;20.75;;;;;;;22.69;87.32;100537.25;5083560;28;20457;-69
2022/08/19 01:55:04;;;;;;;33.92;21.50;;;;;;;22.74;87.06;100538.47;5102926;27;20495;-68
2022/08/19 01:57:32;;;;;;;29.95;22.38;;;;;;;22.82;86.38;100540.34;5106391;27;20491;-68
2022/08/19 01:59:59;;;;;;;32.17;23.95;;;;;;;22.57;88.17;100535.88;5094434;27;20044;-69
2022/08/19 02:02:25;;;;;;;30.13;22.15;;;;;;;22.66;87.88;100537.56;5083906;27;20065;-68
2022/08/19 02:04:52;;;;;;;33.72;23.30;;;;;;;22.73;87.69;100528.75;5084668;28;20044;-68
2022/08/19 02:07:20;;;;;;;32.47;23.30;;;;;;;22.64;87.81;100536.91;5083699;28;20048;-68
2022/08/19 02:09:47;;;;;;;44.80;24.35;;;;;;;22.57;87.91;100542.06;5083789;28;20484;-68
2022/08/19 02:12:13;;;;;;;33.05;23.13;;;;;;;22.69;87.91;100532.75;5085507;28;20415;-69
2022/08/19 02:14:41;;;;;;;33.83;23.30;;;;;;;22.72;88.14;100528.94;5084568;27;20415;-68
2022/08/19 02:17:07;;;;;;;35.22;23.75;;;;;;;22.65;88.32;100520.69;5087915;27;20044;-68
2022/08/19 02:19:33;;;;;;;32.53;22.13;;;;;;;22.63;88.20;100517.34;5093146;27;20097;-68
2022/08/19 02:22:00;;;;;;;32.10;23.02;;;;;;;22.43;89.41;100520.47;5084189;27;20052;-68
2022/08/19 02:24:27;;;;;;;28.95;21.92;;;;;;;22.55;88.56;100516.47;5082650;27;20140;-69
2022/08/19 02:26:54;;;;;;;30.20;21.25;;;;;;;22.45;88.93;100513.09;5085183;27;20089;-68
2022/08/19 02:29:20;;;;;;;29.27;20.50;;;;;;;22.51;88.78;100513.28;5083529;27;20044;-69
2022/08/19 02:31:48;;;;;;;40.00;21.73;;;;;;;22.70;88.04;100506.88;5087845;27;20040;-69
2022/08/19 02:34:15;;;;;;;26.60;21.02;;;;;;;22.62;88.88;100498.78;5084108;27;20654;-68
2022/08/19 02:36:41;;;;;;;31.00;20.52;;;;;;;22.72;87.64;100500.38;5097592;27;20047;-69
2022/08/19 02:39:07;;;;;;;30.63;21.30;;;;;;;22.58;88.05;100502.81;5101591;27;20416;-69
2022/08/19 02:41:34;;;;;;;30.48;20.80;;;;;;;22.50;88.87;100500.94;5107098;27;20065;-69
2022/08/19 02:44:02;;;;;;;29.65;20.42;;;;;;;22.62;88.39;100504.13;5107158;27;20044;-69
2022/08/19 02:46:32;;;;;;;29.38;20.33;;;;;;;22.75;87.13;100492.03;5087985;27;20044;-69
2022/08/19 02:49:03;;;;;;;31.25;20.48;;;;;;;22.64;87.50;100491.47;5083978;28;20483;-70
2022/08/19 02:51:31;;;;;;;32.40;21.08;;;;;;;22.97;85.80;100495.91;5080733;28;20044;-69
2022/08/19 02:53:58;;;;;;;33.13;22.27;;;;;;;23.13;84.60;100493.25;5076103;28;20492;-69
2022/08/19 02:56:26;;;;;;;31.42;21.38;;;;;;;22.95;85.33;100481.88;5068408;28;20055;-69
2022/08/19 02:58:54;;;;;;;27.80;20.23;;;;;;;22.67;86.32;100472.44;5092553;28;20044;-69
2022/08/19 03:01:23;;;;;;;26.58;20.17;;;;;;;22.17;88.39;100478.59;5067041;28;20037;-69
2022/08/19 03:03:50;;;;;;;34.40;19.73;;;;;;;21.89;91.08;100482.41;5061335;28;20454;-70
2022/08/19 03:06:18;;;;;;;28.73;20.35;;;;;;;22.12;90.26;100469.38;5072252;28;20123;-69
2022/08/19 03:08:46;;;;;;;29.60;19.45;;;;;;;21.98;90.10;100461.97;5088426;28;20044;-69
2022/08/19 03:11:17;;;;;;;27.83;19.95;;;;;;;22.14;89.20;100465.56;5087885;27;20411;-69
2022/08/19 03:13:44;;;;;;;28.48;20.95;;;;;;;22.22;89.11;100468.25;5089814;27;20040;-70
2022/08/19 03:16:11;;;;;;;27.98;20.02;;;;;;;22.17;88.64;100467.09;5095541;27;20048;-69
2022/08/19 03:18:38;;;;;;;27.80;19.02;;;;;;;22.04;89.33;100464.84;5088316;28;20048;-68
2022/08/19 03:21:05;;;;;;;26.17;20.20;;;;;;;21.91;90.16;100468.94;5091580;27;20048;-68
2022/08/19 03:23:34;;;;;;;31.15;19.63;;;;;;;21.88;89.60;100471.91;5106666;27;20104;-69
2022/08/19 03:26:05;;;;;;;30.08;19.40;;;;;;;22.01;89.32;100472.34;5106221;27;20491;-68
2022/08/19 03:28:32;;;;;;;30.30;19.97;;;;;;;21.96;89.69;100471.97;5066349;28;20048;-68
2022/08/19 03:31:01;;;;;;;27.90;20.50;;;;;;;21.93;90.56;100472.28;5083432;28;20064;-68
2022/08/19 03:33:28;;;;;;;34.50;20.52;;;;;;;21.97;90.20;100477.16;5087556;28;20044;-68
2022/08/19 03:36:01;;;;;;;27.70;19.58;;;;;;;22.12;89.16;100472.91;5086051;28;20044;-68
2022/08/19 03:38:27;;;;;;;33.00;20.45;;;;;;;21.92;90.65;100482.13;5088255;28;20093;-68
2022/08/19 03:40:55;;;;;;;32.05;20.60;;;;;;;21.70;91.28;100479.94;5102634;27;20039;-69
2022/08/19 03:43:21;;;;;;;33.05;20.63;;;;;;;21.58;92.06;100490.03;5106795;27;20499;-68
2022/08/19 03:45:48;;;;;;;27.52;20.00;;;;;;;21.82;90.86;100486.72;5092180;27;20040;-69
2022/08/19 03:48:16;;;;;;;29.15;20.60;;;;;;;21.99;89.78;100490.38;5087869;27;20067;-69
2022/08/19 03:50:43;;;;;;;27.73;19.33;;;;;;;21.84;90.51;100476.69;5099118;27;20045;-69
2022/08/19 03:53:09;;;;;;;28.05;19.52;;;;;;;21.43;92.58;100472.94;5106589;27;20096;-69
2022/08/19 03:55:40;;;;;;;28.92;18.92;;;;;;;21.51;92.83;100474.81;5108612;27;20049;-69
2022/08/19 03:58:08;;;;;;;24.70;19.13;;;;;;;21.55;92.61;100462.84;5112654;27;20088;-69
2022/08/19 04:00:35;;;;;;;28.13;19.65;;;;;;;21.45;92.57;100464.78;5093456;27;20127;-70
2022/08/19 04:03:02;;;;;;;34.08;20.30;;;;;;;21.77;90.80;100471.16;5087994;27;20051;-70
2022/08/19 04:05:29;;;;;;;32.53;20.55;;;;;;;21.80;90.98;100480.72;5084521;28;20050;-70
2022/08/19 04:07:58;;;;;;;27.95;19.58;;;;;;;21.77;91.14;100473.00;5086490;28;20539;-70
2022/08/19 04:10:24;;;;;;;30.02;19.60;;;;;;;21.75;91.41;100473.16;5096115;27;20047;-70
2022/08/19 04:12:51;;;;;;;33.25;19.98;;;;;;;21.78;90.83;100472.00;5105209;27;20491;-70
2022/08/19 04:15:18;;;;;;;34.85;20.15;;;;;;;21.68;91.15;100471.28;5096235;27;20487;-69
2022/08/19 04:17:45;;;;;;;29.23;20.08;;;;;;;21.72;89.91;100477.97;5086861;28;20423;-69
2022/08/19 04:20:12;;;;;;;34.50;20.35;;;;;;;21.86;89.52;100472.06;5094165;27;20051;-69
2022/08/19 04:22:38;;;;;;;30.83;18.83;;;;;;;21.77;90.16;100479.16;5107072;27;20043;-69
2022/08/19 04:25:05;;;;;;;31.05;20.10;;;;;;;21.74;90.22;100486.66;5106895;27;20043;-69
2022/08/19 04:27:33;;;;;;;28.98;18.95;;;;;;;21.81;89.93;100485.03;5105853;27;20457;-69
2022/08/19 04:29:59;;;;;;;29.05;19.88;;;;;;;21.64;89.49;100496.59;5098091;27;20607;-69
2022/08/19 04:32:27;;;;;;;29.85;19.42;;;;;;;21.89;88.12;100506.44;5087555;27;20044;-69
2022/08/19 04:34:58;;;;;;;32.80;20.60;;;;;;;21.85;87.67;100502.41;5084634;28;20048;-69
2022/08/19 04:37:26;;;;;;;28.57;19.53;;;;;;;21.98;86.74;100494.84;5086298;28;20148;-69
2022/08/19 04:42:39;;;;;;;28.17;19.40;;;;;;;21.93;86.21;100497.16;5086179;28;20100;-69
2022/08/19 04:45:07;;;;;;;35.55;19.83;;;;;;;21.85;86.56;100513.94;5086980;27;20211;-69
2022/08/19 04:47:34;;;;;;;31.70;19.52;;;;;;;21.98;86.01;100523.38;5078149;27;20048;-69
2022/08/19 04:50:01;;;;;;;30.05;18.27;;;;;;;21.63;86.84;100527.78;5087755;27;20065;-69
2022/08/19 04:52:27;;;;;;;30.80;19.15;;;;;;;21.53;87.44;100532.38;5107343;27;20413;-69
2022/08/19 04:54:55;;;;;;;29.33;18.05;;;;;;;21.40;87.87;100536.41;5098174;27;20495;-69
2022/08/19 04:57:21;;;;;;;30.48;18.92;;;;;;;21.57;87.29;100543.56;5085812;27;20048;-69
2022/08/19 04:59:48;;;;;;;31.08;19.52;;;;;;;21.33;88.23;100550.38;5084985;27;20067;-69
2022/08/19 05:02:14;;;;;;;32.70;19.08;;;;;;;21.45;87.22;100553.66;5083507;27;20044;-69
2022/08/19 05:04:42;;;;;;;31.88;19.40;;;;;;;21.46;87.33;100549.16;5084478;28;20074;-69
2022/08/19 05:07:10;;;;;;;31.98;19.48;;;;;;;21.50;87.20;100543.34;5096939;27;20047;-69
2022/08/19 05:09:36;;;;;;;28.35;19.05;;;;;;;21.24;88.05;100537.97;5096284;27;20048;-69
2022/08/19 05:12:04;;;;;;;30.00;18.25;;;;;;;21.02;89.65;100532.19;5104644;27;20043;-69
2022/08/19 05:14:30;;;;;;;30.88;18.42;;;;;;;21.14;88.64;100531.84;5098051;27;20487;-68
2022/08/19 05:16:57;;;;;;;33.78;17.58;;;;;;;21.26;88.76;100538.63;5073376;27;20056;-69
2022/08/19 05:24:52;;;;;;;33.10;17.88;;;;;;;22.08;84.60;100532.13;5085333;27;20526;-69
2022/08/19 05:27:18;;;;;;;34.58;18.25;;;;;;;22.09;83.78;100531.13;5084506;27;20101;-69
2022/08/19 05:29:45;;;;;;;29.10;16.75;;;;;;;21.73;84.84;100533.84;5084239;27;20457;-69
2022/08/19 05:32:11;;;;;;;27.58;18.20;;;;;;;21.51;86.32;100530.84;5083838;28;20617;-69
2022/08/19 05:34:38;;;;;;;32.25;17.67;;;;;;;21.42;87.28;100537.09;5083361;28;20097;-69
2022/08/19 05:37:08;;;;;;;29.35;17.40;;;;;;;21.67;85.85;100536.31;5085666;28;20044;-69
2022/08/19 05:39:36;;;;;;;27.55;17.63;;;;;;;21.44;86.60;100543.13;5084927;28;20106;-69
2022/08/19 05:42:06;;;;;;;26.38;16.05;;;;;;;21.34;87.59;100549.38;5084568;27;20637;-70
2022/08/19 05:44:35;;;;;;;29.73;16.40;;;;;;;21.28;87.23;100547.34;5085053;28;20044;-70
2022/08/19 05:47:04;;;;;;;29.73;17.52;;;;;;;21.39;87.05;100543.59;5085916;28;20059;-69
2022/08/19 05:49:32;;;;;;;27.25;17.77;;;;;;;21.75;85.45;100544.38;5084483;28;20050;-69
2022/08/19 05:51:59;;;;;;;34.97;17.67;;;;;;;21.80;84.89;100550.91;5089673;27;20048;-69
2022/08/19 05:54:26;;;;;;;25.73;17.23;;;;;;;21.75;85.30;100561.25;5106192;27;20055;-68
2022/08/19 05:56:54;;;;;;;29.65;18.20;;;;;;;21.99;83.79;100563.25;5106788;27;20051;-69
2022/08/19 05:59:21;;;;;;;30.75;17.35;;;;;;;21.82;83.90;100569.44;5104694;27;20046;-69
2022/08/19 06:01:51;;;;;;;28.35;16.40;;;;;;;21.63;85.01;100574.97;5086555;27;20411;-69
2022/08/19 06:04:19;;;;;;;31.48;17.27;;;;;;;21.74;84.53;100561.38;5085226;27;20048;-69
2022/08/19 06:06:45;;;;;;;26.05;16.13;;;;;;;21.83;84.20;100571.13;5083966;28;20428;-69
2022/08/19 06:09:12;;;;;;;25.92;17.13;;;;;;;22.14;83.17;100577.72;5082614;27;20054;-69
2022/08/19 06:11:43;;;;;;;26.10;16.85;;;;;;;22.14;82.76;100577.72;5100296;27;20097;-68
2022/08/19 06:14:11;;;;;;;24.50;16.38;;;;;;;21.74;84.03;100572.91;5096349;27;20135;-69
2022/08/19 06:16:39;;;;;;;27.67;17.05;;;;;;;22.06;82.96;100572.31;5088281;27;20477;-69
2022/08/19 06:19:09;;;;;;;29.63;17.85;;;;;;;21.91;83.45;100579.25;5066857;28;20046;-69
2022/08/19 06:21:37;;;;;;;27.88;17.48;;;;;;;21.87;83.09;100582.34;5085142;28;20040;-69
2022/08/19 06:24:06;;;;;;;31.83;17.17;;;;;;;22.28;82.30;100597.69;5076097;27;20072;-69
2022/08/19 06:26:32;;;;;;;25.35;16.15;;;;;;;22.68;79.78;100607.78;5103793;27;20081;-69
2022/08/19 06:29:00;;;;;;;28.70;16.25;;;;;;;22.60;79.83;100621.91;5105302;27;20588;-69
2022/08/19 06:31:31;;;;;;;24.95;16.30;;;;;;;22.52;80.03;100618.34;5102335;27;20118;-70
2022/08/19 06:33:57;;;;;;;24.35;16.55;;;;;;;22.22;81.11;100622.34;5074111;27;20523;-69
2022/08/19 06:36:31;;;;;;;28.10;16.30;;;;;;;22.09;82.23;100628.09;5078440;28;20081;-69
2022/08/19 06:38:58;;;;;;;27.33;16.95;;;;;;;22.14;81.76;100623.13;5084775;27;20423;-70
2022/08/19 06:41:25;;;;;;;24.35;15.98;;;;;;;22.21;81.06;100623.31;5083616;27;20129;-70
2022/08/19 06:43:51;;;;;;;29.25;18.05;;;;;;;21.84;83.05;100620.84;5083635;27;20044;-70
2022/08/19 06:46:19;;;;;;;25.70;16.95;;;;;;;21.96;82.75;100632.16;5084793;27;20408;-70
2022/08/19 06:48:46;;;;;;;29.38;16.95;;;;;;;21.75;83.14;100635.13;5081418;27;20698;-70
2022/08/19 06:51:18;;;;;;;32.20;17.33;;;;;;;21.96;83.05;100627.66;5082781;28;20467;-70
2022/08/19 06:53:46;;;;;;;32.42;17.65;;;;;;;21.79;83.88;100631.16;5084533;27;20047;-69
2022/08/19 06:56:14;;;;;;;29.17;16.73;;;;;;;22.08;82.26;100618.41;5083364;27;20044;-69
2022/08/19 06:58:40;;;;;;;30.17;16.50;;;;;;;22.42;80.55;100625.63;5081342;27;20055;-70
2022/08/19 07:01:07;;;;;;;26.38;17.38;;;;;;;22.61;79.82;100626.25;5074637;27;20117;-69
2022/08/19 07:03:36;;;;;;;26.20;16.88;;;;;;;22.54;79.85;100632.41;5076474;27;20491;-69
2022/08/19 07:06:04;;;;;;;26.17;15.57;;;;;;;22.17;80.79;100633.47;5075180;27;20097;-69
2022/08/19 07:08:30;;;;;;;26.17;16.33;;;;;;;22.33;81.00;100630.09;5083424;28;20530;-69
2022/08/19 07:10:57;;;;;;;28.05;17.00;;;;;;;22.46;80.02;100640.38;5090520;27;20944;-69
2022/08/19 07:13:23;;;;;;;26.50;16.33;;;;;;;22.48;80.37;100636.53;5079910;27;20109;-69
2022/08/19 07:15:50;;;;;;;26.15;16.35;;;;;;;22.44;80.09;100637.84;5085885;27;20040;-68
2022/08/19 07:18:18;;;;;;;31.52;16.80;;;;;;;22.28;80.45;100635.09;5066906;28;20407;-69
2022/08/19 07:20:46;;;;;;;28.25;17.42;;;;;;;22.41;80.30;100642.66;5064065;27;20138;-68
2022/08/19 07:23:12;;;;;;;25.83;16.05;;;;;;;22.62;79.05;100637.75;5059670;28;20037;-68
2022/08/19 07:25:39;;;;;;;32.10;16.80;;;;;;;22.62;79.46;100637.75;5057220;28;20098;-68
2022/08/19 07:28:07;;;;;;;31.77;16.65;;;;;;;22.57;79.16;100640.94;5083055;27;20155;-69
2022/08/19 07:30:33;;;;;;;28.83;16.65;;;;;;;22.35;80.39;100641.47;5082989;27;20420;-73
2022/08/19 07:33:00;;;;;;;25.75;17.92;;;;;;;21.98;81.99;100639.03;5083838;27;20093;-66
2022/08/19 07:35:28;;;;;;;30.13;18.08;;;;;;;22.13;81.77;100650.00;5079186;27;20492;-65
2022/08/19 07:37:55;;;;;;;31.58;18.65;;;;;;;21.60;84.22;100658.84;5077649;27;20504;-65
2022/08/19 07:40:22;;;;;;;29.83;17.38;;;;;;;21.69;84.22;100662.44;5086776;27;20044;-65
2022/08/19 07:42:48;;;;;;;33.42;18.77;;;;;;;21.94;83.17;100663.50;5085842;27;20495;-65
2022/08/19 07:45:15;;;;;;;29.60;17.77;;;;;;;21.95;82.78;100665.19;5087498;27;20048;-65
2022/08/19 07:47:42;;;;;;;30.73;17.77;;;;;;;22.06;83.04;100671.13;5086581;27;20090;-65
2022/08/19 07:50:11;;;;;;;28.48;18.77;;;;;;;22.24;82.00;100655.94;5086244;28;20492;-65
2022/08/19 07:52:39;;;;;;;28.45;18.10;;;;;;;22.26;82.03;100669.94;5087009;28;20044;-65
2022/08/19 07:55:08;;;;;;;27.30;17.85;;;;;;;22.15;82.69;100659.50;5087990;28;20043;-65
2022/08/19 07:57:35;;;;;;;26.45;17.90;;;;;;;22.21;81.85;100666.91;5081959;28;20060;-66
2022/08/19 08:00:01;;;;;;;29.85;18.42;;;;;;;22.17;82.00;100662.84;5084642;28;20097;-66
2022/08/19 08:02:27;;;;;;;30.05;19.20;;;;;;;22.48;80.74;100662.41;5082514;28;20654;-65
2022/08/19 08:10:23;;;;;;;28.52;17.85;;;;;;;22.57;79.58;100674.84;5086988;27;20051;-66
2022/08/19 08:12:49;;;;;;;31.25;18.58;;;;;;;22.92;77.95;100672.03;5091473;28;20079;-65
2022/08/19 08:15:18;;;;;;;28.73;17.30;;;;;;;23.11;77.63;100668.28;5079183;27;20043;-65
2022/08/19 08:17:45;;;;;;;26.40;17.00;;;;;;;23.17;76.57;100671.13;5071924;27;20044;-65
2022/08/19 08:20:12;;;;;;;27.65;16.77;;;;;;;22.98;77.13;100671.41;5089672;27;20052;-65
2022/08/19 08:25:30;;;;;;;25.88;17.08;;;;;;;23.10;76.89;100686.16;5095132;27;20053;-64
2022/08/19 08:27:59;;;;;;;24.35;17.20;;;;;;;23.01;77.25;100688.97;5089990;27;20047;-65
2022/08/19 08:30:27;;;;;;;27.33;17.40;;;;;;;22.89;77.08;100685.72;5084017;27;20097;-64
2022/08/19 08:32:54;;;;;;;25.23;16.38;;;;;;;23.53;74.46;100687.84;5078025;27;20048;-65
2022/08/19 08:35:22;;;;;;;27.33;17.17;;;;;;;23.08;75.58;100692.66;5087977;27;20441;-65
2022/08/19 08:37:51;;;;;;;26.98;17.10;;;;;;;22.77;76.79;100689.66;5087665;27;20039;-64
2022/08/19 08:40:21;;;;;;;26.30;17.65;;;;;;;22.79;76.55;100691.22;5086003;27;20054;-65
2022/08/19 08:42:55;;;;;;;26.63;17.55;;;;;;;22.68;77.25;100694.16;5105335;27;20051;-65
2022/08/19 08:45:23;;;;;;;26.00;18.75;;;;;;;22.86;77.92;100704.78;5107676;27;20039;-65
2022/08/19 08:47:53;;;;;;;28.95;18.33;;;;;;;22.95;76.29;100703.78;5079431;27;20071;-65
2022/08/19 08:50:26;;;;;;;30.05;17.98;;;;;;;22.90;76.57;100707.97;5071050;27;20056;-65
2022/08/19 08:52:56;;;;;;;37.20;18.98;;;;;;;22.85;77.14;100713.78;5087389;27;20040;-65
2022/08/19 08:55:26;;;;;;;28.70;18.08;;;;;;;23.09;77.29;100716.59;5075935;27;20039;-65
2022/08/19 08:57:59;;;;;;;26.27;16.25;;;;;;;23.12;75.25;100715.44;5095728;27;20046;-65
2022/08/19 09:00:28;;;;;;;25.05;16.27;;;;;;;23.19;74.20;100727.16;5098136;27;20075;-65
2022/08/19 09:02:55;;;;;;;25.02;15.80;;;;;;;23.02;75.15;100720.88;5099909;27;20068;-70
2022/08/19 09:05:23;;;;;;;25.00;15.10;;;;;;;22.45;78.12;100717.00;5091398;27;20040;-70
2022/08/19 09:07:57;;;;;;;24.23;15.18;;;;;;;22.73;77.36;100717.72;5085904;27;20082;-69
2022/08/19 09:10:32;;;;;;;23.27;15.52;;;;;;;22.99;76.04;100721.19;5088923;27;20093;-69
2022/08/19 09:13:09;;;;;;;24.83;15.98;;;;;;;22.95;74.98;100719.03;5086916;27;20044;-70
2022/08/19 09:15:39;;;;;;;22.58;14.18;;;;;;;22.94;75.92;100712.84;5087962;27;20044;-70
2022/08/19 09:18:06;;;;;;;24.52;15.40;;;;;;;23.08;74.75;100725.59;5085062;27;20063;-69
2022/08/19 09:20:32;;;;;;;22.60;13.75;;;;;;;23.19;74.42;100721.81;5085047;27;20044;-69
2022/08/19 09:22:59;;;;;;;21.77;14.02;;;;;;;23.02;75.80;100720.06;5086839;27;20499;-70
2022/08/19 09:25:26;;;;;;;21.95;15.30;;;;;;;22.59;76.40;100723.59;5088214;27;20043;-70
2022/08/19 09:27:54;;;;;;;22.75;14.68;;;;;;;22.61;76.95;100711.78;5085207;28;20048;-69
2022/08/19 09:30:24;;;;;;;22.65;14.45;;;;;;;22.65;76.76;100707.78;5086686;27;20066;-69
2022/08/19 09:32:53;;;;;;;22.67;13.57;;;;;;;22.83;76.36;100710.44;5081928;27;20041;-69
2022/08/19 09:35:21;;;;;;;23.02;12.63;;;;;;;23.13;74.98;100712.56;5080683;28;20407;-69
2022/08/19 09:37:49;;;;;;;20.73;13.98;;;;;;;23.17;76.01;100724.63;5081048;28;20451;-69
2022/08/19 09:40:16;;;;;;;20.55;13.40;;;;;;;23.35;75.81;100721.88;5085497;28;20040;-70
2022/08/19 09:42:44;;;;;;;20.30;13.27;;;;;;;23.33;73.90;100726.53;5086888;28;20039;-70
2022/08/19 09:45:11;;;;;;;22.52;13.93;;;;;;;23.16;74.05;100727.50;5084647;28;20051;-70
2022/08/19 09:47:38;;;;;;;22.60;13.57;;;;;;;23.04;74.90;100728.75;5084117;27;20043;-69
2022/08/19 09:50:07;;;;;;;24.63;12.50;;;;;;;23.10;74.40;100718.25;5085146;27;20113;-70
2022/08/19 09:52:36;;;;;;;15.70;11.90;;;;;;;23.23;74.37;100726.69;5086531;28;20088;-69
2022/08/19 09:55:03;;;;;;;19.95;12.85;;;;;;;23.76;73.83;100725.53;5083999;28;20048;-70
2022/08/19 09:57:29;;;;;;;19.70;12.73;;;;;;;24.17;72.64;100715.72;5101524;27;20042;-70
2022/08/19 09:59:56;;;;;;;24.83;12.35;;;;;;;24.68;70.37;100726.06;5095020;27;20184;-70
2022/08/19 10:02:22;;;;;;;17.30;12.15;;;;;;;24.33;69.50;100734.47;5084227;27;20040;-70
2022/08/19 10:07:35;;;;;;;16.95;11.13;;;;;;;24.75;68.33;100739.66;5085980;27;20136;-70
2022/08/19 10:10:01;;;;;;;14.00;10.55;;;;;;;24.98;68.18;100719.16;5084753;27;20075;-70
2022/08/19 10:12:27;;;;;;;16.17;10.63;;;;;;;24.89;68.04;100730.91;5084810;28;20109;-70
2022/08/19 10:14:54;;;;;;;15.90;11.18;;;;;;;24.36;68.81;100734.16;5072815;28;20067;-69
2022/08/19 10:17:20;;;;;;;15.63;12.23;;;;;;;24.39;69.43;100724.94;5059683;28;20407;-71
2022/08/19 10:19:47;;;;;;;20.88;12.13;;;;;;;24.42;69.75;100724.59;5064542;28;20102;-70
2022/08/19 10:22:15;;;;;;;15.75;11.55;;;;;;;24.07;69.83;100729.25;5066403;28;20045;-70
2022/08/19 10:24:42;;;;;;;21.90;11.80;;;;;;;24.56;70.39;100724.75;5065942;28;20049;-70
2022/08/19 10:27:09;;;;;;;16.85;11.25;;;;;;;24.91;67.71;100720.84;5064728;28;20052;-70
2022/08/19 10:29:36;;;;;;;14.85;10.52;;;;;;;25.05;67.57;100711.25;5062690;28;20044;-70
2022/08/19 10:32:05;;;;;;;12.93;9.65;;;;;;;25.25;66.52;100720.56;5065925;28;20071;-70
2022/08/19 10:34:33;;;;;;;15.20;10.93;;;;;;;25.47;66.84;100717.09;5063371;28;20067;-70
2022/08/19 10:37:00;;;;;;;15.15;10.25;;;;;;;25.54;65.43;100717.25;5062792;28;20132;-70
2022/08/19 10:39:29;;;;;;;11.48;8.73;;;;;;;25.80;64.54;100714.25;5063604;28;20471;-70
2022/08/19 10:41:56;;;;;;;17.88;10.10;;;;;;;26.21;63.55;100710.28;5063494;28;20056;-69
2022/08/19 10:44:23;;;;;;;18.40;9.93;;;;;;;26.62;65.03;100705.34;5061797;28;20062;-69
2022/08/19 10:46:51;;;;;;;17.48;8.73;;;;;;;27.26;61.78;100698.44;5064013;28;20051;-70
2022/08/19 10:49:19;;;;;;;14.50;8.23;;;;;;;27.39;59.85;100693.19;5064245;28;20984;-70
2022/08/19 10:57:14;;;;;;;18.85;10.10;;;;;;;27.78;57.77;100703.63;5106322;27;20134;-70
2022/08/19 10:59:40;;;;;;;13.48;9.20;;;;;;;27.60;57.88;100697.81;5107611;27;20032;-70
2022/08/19 11:02:10;;;;;;;14.27;9.98;;;;;;;27.35;58.02;100693.75;5104936;27;20133;-69
2022/08/19 11:04:37;;;;;;;15.63;10.43;;;;;;;27.09;59.88;100696.94;5086479;27;20380;-69
2022/08/19 11:07:05;;;;;;;15.52;10.48;;;;;;;27.13;58.91;100709.00;5085009;28;20044;-70
2022/08/19 11:09:38;;;;;;;16.25;11.07;;;;;;;27.12;58.93;100701.97;5082482;28;20044;-70
2022/08/19 11:12:05;;;;;;;13.32;9.07;;;;;;;26.52;59.78;100688.66;5083447;28;20055;-70
2022/08/19 11:14:32;;;;;;;17.88;10.90;;;;;;;26.90;59.04;100687.56;5088474;28;20101;-69
2022/08/19 11:16:59;;;;;;;13.85;10.52;;;;;;;27.07;59.29;100686.38;5081586;27;20056;-69
2022/08/19 11:19:26;;;;;;;13.32;10.27;;;;;;;27.15;58.97;100693.53;5083861;28;20052;-69
2022/08/19 11:21:54;;;;;;;14.70;10.25;;;;;;;26.99;60.08;100685.63;5086918;28;20105;-69
2022/08/19 11:24:23;;;;;;;15.48;10.90;;;;;;;27.05;58.39;100685.72;5085612;27;20430;-70
2022/08/19 11:26:56;;;;;;;14.82;9.55;;;;;;;26.62;59.43;100684.69;5088776;27;20388;-69
2022/08/19 11:29:25;;;;;;;14.70;10.57;;;;;;;26.26;59.50;100691.75;5087110;27;20043;-69
2022/08/19 11:31:53;;;;;;;17.30;11.02;;;;;;;25.81;61.59;100710.56;5075927;28;20139;-69
2022/08/19 11:34:21;;;;;;;12.15;10.00;;;;;;;25.77;61.21;100706.53;5082196;27;20488;-69
2022/08/19 11:36:49;;;;;;;14.30;10.75;;;;;;;25.30;63.14;100696.72;5086975;28;20097;-69